Time;durP1;ratioP1;P1;durP2;ratioP2;P2;SDS_P1;SDS_P2;PMS_P1;PMS_P2;Temp;Humidity;BMP_temperature;BMP_pressure;BME280_temperature;BME280_humidity;BME280_pressure;Samples;Min_cycle;Max_cycle;Signal;HPM_P1;HPM_P2
2021/12/30 00:00:11;;;;;;;50.00;12.15;;;;;;;;;;5013403;28;20221;-64
2021/12/30 00:02:36;;;;;;;43.25;10.63;;;;;;;;;;5012982;28;20221;-64
2021/12/30 00:05:01;;;;;;;38.97;11.15;;;;;;;;;;5013287;28;20219;-64
2021/12/30 00:07:28;;;;;;;50.13;11.30;;;;;;;;;;5014012;28;20311;-64
2021/12/30 00:09:53;;;;;;;43.10;11.70;;;;;;;;;;5012845;28;20710;-64
2021/12/30 00:12:18;;;;;;;42.55;11.40;;;;;;;;;;5013261;28;20216;-64
2021/12/30 00:14:43;;;;;;;43.88;11.75;;;;;;;;;;5013763;28;20236;-64
2021/12/30 00:17:09;;;;;;;44.20;12.18;;;;;;;;;;5012586;28;20251;-64
2021/12/30 00:19:34;;;;;;;41.60;12.77;;;;;;;;;;5013465;28;20327;-64
2021/12/30 00:21:59;;;;;;;51.33;13.07;;;;;;;;;;5013437;28;20217;-64
2021/12/30 00:24:25;;;;;;;41.55;13.40;;;;;;;;;;5012051;28;20221;-64
2021/12/30 00:26:50;;;;;;;43.95;12.55;;;;;;;;;;5013673;28;20524;-64
2021/12/30 00:29:16;;;;;;;44.17;13.65;;;;;;;;;;5012852;28;20672;-64
2021/12/30 00:31:41;;;;;;;42.75;14.45;;;;;;;;;;5011425;28;20204;-64
2021/12/30 00:34:06;;;;;;;43.13;15.98;;;;;;;;;;5012838;28;20580;-64
2021/12/30 00:36:31;;;;;;;45.85;14.63;;;;;;;;;;5013238;28;20221;-64
2021/12/30 00:38:57;;;;;;;42.00;14.02;;;;;;;;;;5012690;28;20212;-64
2021/12/30 00:41:22;;;;;;;46.13;15.80;;;;;;;;;;5011390;28;20219;-64
2021/12/30 00:43:47;;;;;;;47.53;15.20;;;;;;;;;;5013184;28;20221;-64
2021/12/30 00:46:13;;;;;;;47.45;15.88;;;;;;;;;;5011721;28;20271;-64
2021/12/30 00:48:38;;;;;;;51.78;16.02;;;;;;;;;;5011721;28;20271;-64
2021/12/30 00:51:03;;;;;;;42.72;14.43;;;;;;;;;;5011876;28;20747;-64
2021/12/30 00:53:29;;;;;;;47.58;16.02;;;;;;;;;;5011511;28;20200;-64
2021/12/30 00:55:54;;;;;;;49.20;15.85;;;;;;;;;;5012743;28;20224;-64
2021/12/30 00:58:19;;;;;;;42.20;14.60;;;;;;;;;;5011751;28;20219;-64
2021/12/30 01:00:45;;;;;;;39.67;13.75;;;;;;;;;;5012821;28;20290;-64
2021/12/30 01:03:10;;;;;;;40.38;14.70;;;;;;;;;;5012366;28;20304;-64
2021/12/30 01:05:35;;;;;;;37.30;13.38;;;;;;;;;;5010611;28;20757;-64
2021/12/30 01:08:02;;;;;;;40.50;14.38;;;;;;;;;;5012290;28;20243;-64
2021/12/30 01:10:28;;;;;;;42.67;14.30;;;;;;;;;;5012524;28;20822;-64
2021/12/30 01:12:53;;;;;;;41.40;14.40;;;;;;;;;;5012007;28;20208;-64
2021/12/30 01:15:20;;;;;;;47.42;14.40;;;;;;;;;;5012229;28;20212;-64
2021/12/30 01:20:11;;;;;;;47.22;13.40;;;;;;;;;;5011182;28;20213;-64
2021/12/30 01:22:36;;;;;;;39.53;12.68;;;;;;;;;;5012259;28;20307;-64
2021/12/30 01:25:02;;;;;;;43.92;12.60;;;;;;;;;;5011912;28;20682;-64
2021/12/30 01:27:28;;;;;;;46.72;11.95;;;;;;;;;;5011760;28;20215;-64
2021/12/30 01:29:53;;;;;;;37.40;11.23;;;;;;;;;;5012220;28;20572;-64
2021/12/30 01:32:18;;;;;;;35.70;11.00;;;;;;;;;;5011936;28;20338;-64
2021/12/30 01:34:43;;;;;;;35.97;9.75;;;;;;;;;;5010015;28;20208;-64
2021/12/30 01:37:09;;;;;;;34.97;10.27;;;;;;;;;;5010417;28;20220;-64
2021/12/30 01:39:37;;;;;;;41.33;9.57;;;;;;;;;;5010806;28;20664;-64
2021/12/30 01:42:02;;;;;;;33.45;9.60;;;;;;;;;;5010670;28;20216;-64
2021/12/30 01:44:28;;;;;;;36.58;9.93;;;;;;;;;;5010812;28;20263;-64
2021/12/30 01:46:54;;;;;;;33.83;9.55;;;;;;;;;;5010470;28;20228;-64
2021/12/30 01:49:21;;;;;;;37.85;10.30;;;;;;;;;;5010990;28;20580;-64
2021/12/30 01:51:46;;;;;;;37.72;11.13;;;;;;;;;;5011717;28;20213;-64
2021/12/30 01:54:12;;;;;;;41.72;10.88;;;;;;;;;;5011197;28;20213;-64
2021/12/30 01:56:37;;;;;;;42.53;10.50;;;;;;;;;;5009584;28;20684;-64
2021/12/30 01:59:03;;;;;;;37.55;10.32;;;;;;;;;;5010017;28;20295;-64
2021/12/30 02:01:28;;;;;;;45.25;10.43;;;;;;;;;;5010644;28;20204;-64
2021/12/30 02:03:53;;;;;;;37.78;9.75;;;;;;;;;;5010896;28;20389;-64
2021/12/30 02:06:18;;;;;;;37.63;10.43;;;;;;;;;;5016999;28;20209;-64
2021/12/30 02:08:44;;;;;;;42.25;10.80;;;;;;;;;;5009251;28;20212;-64
2021/12/30 02:11:09;;;;;;;42.58;11.40;;;;;;;;;;5010960;28;20255;-64
2021/12/30 02:13:34;;;;;;;41.03;11.80;;;;;;;;;;5009954;28;20211;-64
2021/12/30 02:16:01;;;;;;;37.50;10.68;;;;;;;;;;5009451;28;20223;-64
2021/12/30 02:18:26;;;;;;;36.78;10.70;;;;;;;;;;5010984;28;20219;-64
2021/12/30 02:20:52;;;;;;;44.30;12.15;;;;;;;;;;5009913;28;20705;-64
2021/12/30 02:23:27;;;;;;;45.03;11.80;;;;;;;;;;5009802;28;20286;-63
2021/12/30 02:25:53;;;;;;;38.70;11.77;;;;;;;;;;5004982;28;20228;-63
2021/12/30 02:28:23;;;;;;;45.83;13.20;;;;;;;;;;4999155;28;20213;-63
2021/12/30 02:30:48;;;;;;;44.67;13.52;;;;;;;;;;5010479;28;20211;-63
2021/12/30 02:33:13;;;;;;;51.58;13.63;;;;;;;;;;5010695;28;20204;-63
2021/12/30 02:35:39;;;;;;;47.08;13.98;;;;;;;;;;5011178;28;20647;-63
2021/12/30 02:38:04;;;;;;;55.90;15.40;;;;;;;;;;5009577;28;20227;-63
2021/12/30 02:40:32;;;;;;;51.92;14.07;;;;;;;;;;5009753;28;20212;-63
2021/12/30 02:42:58;;;;;;;47.63;14.43;;;;;;;;;;5010721;28;20248;-64
2021/12/30 02:45:23;;;;;;;44.75;14.73;;;;;;;;;;5009769;28;20291;-64
2021/12/30 02:47:48;;;;;;;46.75;14.93;;;;;;;;;;5010764;28;20228;-64
2021/12/30 02:50:13;;;;;;;45.67;14.52;;;;;;;;;;5009216;28;20700;-64
2021/12/30 02:52:39;;;;;;;47.40;14.63;;;;;;;;;;5009865;28;20212;-65
2021/12/30 02:55:04;;;;;;;50.38;15.30;;;;;;;;;;5010460;28;20611;-64
2021/12/30 02:57:29;;;;;;;54.25;16.08;;;;;;;;;;5010514;28;20668;-64
2021/12/30 02:59:55;;;;;;;57.30;17.10;;;;;;;;;;5010088;28;20240;-64
2021/12/30 03:02:20;;;;;;;49.22;15.48;;;;;;;;;;5010322;28;20232;-64
2021/12/30 03:04:45;;;;;;;44.20;15.48;;;;;;;;;;5009882;28;20299;-64
2021/12/30 03:07:10;;;;;;;52.92;15.43;;;;;;;;;;5010098;28;20288;-64
2021/12/30 03:09:36;;;;;;;40.17;14.82;;;;;;;;;;5010456;28;20620;-64
2021/12/30 03:12:01;;;;;;;46.33;15.82;;;;;;;;;;5009330;28;20216;-64
2021/12/30 03:14:28;;;;;;;54.97;17.23;;;;;;;;;;5009980;28;20612;-64
2021/12/30 03:16:53;;;;;;;45.95;14.77;;;;;;;;;;5010504;28;20215;-64
2021/12/30 03:19:19;;;;;;;53.38;16.20;;;;;;;;;;5009110;28;20299;-64
2021/12/30 03:21:44;;;;;;;44.50;14.43;;;;;;;;;;5010291;28;20212;-64
2021/12/30 03:24:09;;;;;;;42.97;14.95;;;;;;;;;;5009744;28;20267;-64
2021/12/30 03:26:35;;;;;;;43.22;15.18;;;;;;;;;;5010101;28;20209;-64
2021/12/30 03:29:00;;;;;;;42.17;16.10;;;;;;;;;;5010009;28;20251;-64
2021/12/30 03:31:26;;;;;;;44.65;16.08;;;;;;;;;;5010225;28;20295;-64
2021/12/30 03:33:51;;;;;;;39.40;15.85;;;;;;;;;;5009640;28;20262;-63
2021/12/30 03:36:16;;;;;;;44.58;16.55;;;;;;;;;;5009768;28;20224;-64
2021/12/30 03:38:42;;;;;;;39.30;15.90;;;;;;;;;;5008845;28;20255;-64
2021/12/30 03:41:08;;;;;;;34.53;14.48;;;;;;;;;;5009106;28;20224;-64
2021/12/30 03:43:33;;;;;;;41.05;16.52;;;;;;;;;;5010076;28;20236;-64
2021/12/30 03:45:59;;;;;;;48.85;17.15;;;;;;;;;;5008909;28;20625;-64
2021/12/30 03:48:31;;;;;;;38.78;17.15;;;;;;;;;;5008893;28;20231;-64
2021/12/30 03:50:57;;;;;;;37.28;15.40;;;;;;;;;;5010158;28;20216;-64
2021/12/30 03:53:22;;;;;;;47.28;18.60;;;;;;;;;;5009667;28;20254;-64
2021/12/30 03:55:51;;;;;;;38.15;17.42;;;;;;;;;;5009371;28;20261;-63
2021/12/30 03:58:17;;;;;;;42.75;17.95;;;;;;;;;;5009686;28;20574;-63
2021/12/30 04:00:42;;;;;;;37.55;18.10;;;;;;;;;;5008746;28;20208;-63
2021/12/30 04:03:07;;;;;;;35.08;16.73;;;;;;;;;;5008797;28;20236;-63
2021/12/30 04:05:32;;;;;;;39.38;18.02;;;;;;;;;;5009950;28;20246;-64
2021/12/30 04:07:58;;;;;;;33.53;16.58;;;;;;;;;;5009823;28;20295;-64
2021/12/30 04:10:24;;;;;;;36.88;16.90;;;;;;;;;;5009184;28;20588;-64
2021/12/30 04:12:49;;;;;;;28.00;15.50;;;;;;;;;;5010074;28;20216;-64
2021/12/30 04:15:14;;;;;;;39.00;16.17;;;;;;;;;;5008503;28;20213;-63
2021/12/30 04:17:40;;;;;;;32.13;17.00;;;;;;;;;;5010030;28;20207;-63
2021/12/30 04:20:07;;;;;;;35.55;16.75;;;;;;;;;;5008254;28;20227;-63
2021/12/30 04:22:33;;;;;;;30.83;15.90;;;;;;;;;;5009279;28;20270;-63
2021/12/30 04:24:58;;;;;;;33.42;15.73;;;;;;;;;;5009871;28;20224;-63
2021/12/30 04:27:23;;;;;;;30.13;16.15;;;;;;;;;;5012079;28;20741;-63
2021/12/30 04:29:49;;;;;;;34.95;16.52;;;;;;;;;;5012434;28;20216;-63
2021/12/30 04:32:14;;;;;;;29.20;15.48;;;;;;;;;;5012942;28;20208;-63
2021/12/30 04:34:39;;;;;;;28.80;15.98;;;;;;;;;;5013257;28;20208;-63
2021/12/30 04:37:04;;;;;;;29.02;15.63;;;;;;;;;;5012112;28;20230;-63
2021/12/30 04:39:30;;;;;;;43.70;18.00;;;;;;;;;;5013077;28;20216;-63
2021/12/30 04:41:58;;;;;;;38.13;17.17;;;;;;;;;;5013042;28;20296;-64
2021/12/30 04:44:24;;;;;;;30.58;16.75;;;;;;;;;;5010724;28;20296;-63
2021/12/30 04:46:49;;;;;;;31.00;16.60;;;;;;;;;;5012964;28;20311;-63
2021/12/30 04:49:14;;;;;;;33.70;16.20;;;;;;;;;;5012683;28;20742;-64
2021/12/30 04:51:40;;;;;;;30.48;15.90;;;;;;;;;;5012220;28;20208;-63
2021/12/30 04:54:05;;;;;;;36.00;17.35;;;;;;;;;;5012474;28;20893;-64
2021/12/30 04:56:30;;;;;;;38.33;18.45;;;;;;;;;;5012968;28;20223;-63
2021/12/30 04:58:55;;;;;;;32.65;16.42;;;;;;;;;;5012328;28;20236;-63
2021/12/30 05:01:21;;;;;;;25.40;14.25;;;;;;;;;;5012182;28;20223;-63
2021/12/30 05:03:46;;;;;;;28.17;15.00;;;;;;;;;;5012849;28;20220;-63
2021/12/30 05:06:11;;;;;;;38.50;15.82;;;;;;;;;;5011348;28;20224;-63
2021/12/30 05:08:37;;;;;;;22.52;14.13;;;;;;;;;;5012906;28;20208;-63
2021/12/30 05:11:02;;;;;;;23.55;13.25;;;;;;;;;;5012198;28;20212;-63
2021/12/30 05:13:27;;;;;;;22.83;13.13;;;;;;;;;;5011795;28;20212;-63
2021/12/30 05:15:52;;;;;;;29.80;13.32;;;;;;;;;;5012634;28;20235;-63
2021/12/30 05:18:20;;;;;;;22.60;12.43;;;;;;;;;;5011817;28;20300;-63
2021/12/30 05:20:45;;;;;;;22.05;12.50;;;;;;;;;;5012579;28;20212;-63
2021/12/30 05:23:10;;;;;;;21.60;12.30;;;;;;;;;;5011960;28;20699;-63
2021/12/30 05:25:36;;;;;;;17.63;11.38;;;;;;;;;;5011553;28;20212;-64
2021/12/30 05:28:01;;;;;;;28.55;13.05;;;;;;;;;;5012000;28;20212;-64
2021/12/30 05:30:27;;;;;;;17.38;10.82;;;;;;;;;;5010824;28;20217;-64
2021/12/30 05:32:53;;;;;;;18.00;11.07;;;;;;;;;;5009946;28;20243;-64
2021/12/30 05:35:18;;;;;;;16.67;10.25;;;;;;;;;;5011781;28;20213;-64
2021/12/30 05:37:43;;;;;;;13.52;9.10;;;;;;;;;;5009774;28;20216;-64
2021/12/30 05:40:10;;;;;;;14.23;8.75;;;;;;;;;;5010921;28;20215;-64
2021/12/30 05:42:35;;;;;;;13.90;8.63;;;;;;;;;;5010655;28;20224;-64
2021/12/30 05:45:00;;;;;;;12.38;8.13;;;;;;;;;;5012047;28;20754;-64
2021/12/30 05:47:26;;;;;;;11.18;7.53;;;;;;;;;;5010334;28;20226;-64
2021/12/30 05:49:51;;;;;;;10.27;7.25;;;;;;;;;;5012113;28;20207;-64
2021/12/30 05:52:16;;;;;;;10.85;7.18;;;;;;;;;;5009991;28;20232;-64
2021/12/30 05:54:42;;;;;;;15.95;8.30;;;;;;;;;;5011311;28;20654;-64
2021/12/30 05:57:07;;;;;;;10.95;7.22;;;;;;;;;;4991025;28;20621;-64
2021/12/30 05:59:32;;;;;;;13.55;7.05;;;;;;;;;;5011940;28;20664;-64
2021/12/30 06:01:57;;;;;;;11.57;6.55;;;;;;;;;;5010651;28;20735;-64
2021/12/30 06:04:23;;;;;;;9.48;6.57;;;;;;;;;;5011189;28;20244;-63
2021/12/30 06:06:48;;;;;;;7.88;5.68;;;;;;;;;;5011698;28;20640;-63
2021/12/30 06:09:13;;;;;;;12.02;6.30;;;;;;;;;;5010425;28;20275;-63
2021/12/30 06:11:38;;;;;;;6.82;4.35;;;;;;;;;;5011577;28;20617;-64
2021/12/30 06:14:04;;;;;;;5.55;3.60;;;;;;;;;;5011019;28;20212;-64
2021/12/30 06:16:29;;;;;;;7.40;5.03;;;;;;;;;;5010605;28;20707;-63
2021/12/30 06:18:54;;;;;;;7.38;5.32;;;;;;;;;;5011367;28;20674;-63
2021/12/30 06:21:20;;;;;;;9.38;6.00;;;;;;;;;;5010999;28;20263;-63
2021/12/30 06:23:45;;;;;;;11.43;8.18;;;;;;;;;;5010539;28;20798;-63
2021/12/30 06:26:10;;;;;;;14.45;9.43;;;;;;;;;;5009539;28;20212;-63
2021/12/30 06:28:35;;;;;;;14.80;9.63;;;;;;;;;;5009923;28;20212;-63
2021/12/30 06:31:01;;;;;;;15.40;10.50;;;;;;;;;;5010117;28;20223;-63
2021/12/30 06:33:26;;;;;;;14.43;11.50;;;;;;;;;;5010911;28;20217;-63
2021/12/30 06:35:51;;;;;;;15.82;11.88;;;;;;;;;;5010737;28;20237;-63
2021/12/30 06:38:17;;;;;;;19.15;13.02;;;;;;;;;;5010554;28;20216;-63
2021/12/30 06:40:42;;;;;;;19.65;13.77;;;;;;;;;;5011579;28;20292;-63
2021/12/30 06:43:09;;;;;;;22.13;14.80;;;;;;;;;;5009642;28;20240;-64
2021/12/30 06:45:34;;;;;;;20.98;15.45;;;;;;;;;;5011227;28;20262;-64
2021/12/30 06:48:00;;;;;;;20.02;15.95;;;;;;;;;;5010747;28;20224;-64
2021/12/30 06:50:30;;;;;;;23.33;16.38;;;;;;;;;;5009579;28;20208;-64
2021/12/30 06:52:56;;;;;;;21.27;16.27;;;;;;;;;;5011062;28;20205;-64
2021/12/30 06:55:21;;;;;;;20.75;15.82;;;;;;;;;;5010489;28;20218;-64
2021/12/30 06:57:46;;;;;;;17.35;14.00;;;;;;;;;;5010094;28;20688;-64
2021/12/30 07:00:12;;;;;;;13.63;9.85;;;;;;;;;;5008933;28;20209;-64
2021/12/30 07:02:38;;;;;;;14.77;9.15;;;;;;;;;;5010412;28;20216;-64
2021/12/30 07:05:03;;;;;;;11.05;7.90;;;;;;;;;;5009287;28;20753;-64
2021/12/30 07:07:28;;;;;;;9.30;6.25;;;;;;;;;;5010745;28;20205;-63
2021/12/30 07:09:54;;;;;;;6.13;4.32;;;;;;;;;;5010599;28;20267;-64
2021/12/30 07:12:19;;;;;;;8.63;4.00;;;;;;;;;;5009324;28;20714;-64
2021/12/30 07:14:44;;;;;;;7.00;3.47;;;;;;;;;;5010408;28;20243;-64
2021/12/30 07:17:10;;;;;;;6.30;3.67;;;;;;;;;;5010198;28;20224;-64
2021/12/30 07:19:35;;;;;;;6.50;3.33;;;;;;;;;;5008613;28;20204;-64
2021/12/30 07:22:00;;;;;;;7.28;3.67;;;;;;;;;;5010211;28;20200;-64
2021/12/30 07:24:25;;;;;;;8.50;3.67;;;;;;;;;;5010180;28;20735;-63
2021/12/30 07:26:51;;;;;;;6.55;3.67;;;;;;;;;;5009789;28;20209;-64
2021/12/30 07:29:16;;;;;;;6.03;3.80;;;;;;;;;;5008371;28;20806;-64
2021/12/30 07:31:41;;;;;;;8.27;3.78;;;;;;;;;;5009212;28;20524;-63
2021/12/30 07:34:07;;;;;;;8.15;3.97;;;;;;;;;;5009004;28;20212;-63
2021/12/30 07:36:32;;;;;;;9.60;4.38;;;;;;;;;;5009071;28;20628;-62
2021/12/30 07:38:57;;;;;;;7.32;4.63;;;;;;;;;;5010417;28;20248;-62
2021/12/30 07:41:23;;;;;;;8.15;5.60;;;;;;;;;;5009577;28;20208;-62
2021/12/30 07:43:48;;;;;;;11.48;5.88;;;;;;;;;;5010215;28;20228;-62
2021/12/30 07:46:13;;;;;;;9.38;6.20;;;;;;;;;;5008807;28;20212;-62
2021/12/30 07:48:38;;;;;;;10.73;7.07;;;;;;;;;;5008818;28;20250;-63
2021/12/30 07:51:04;;;;;;;11.07;7.65;;;;;;;;;;5009719;28;20332;-63
2021/12/30 07:53:29;;;;;;;11.98;7.57;;;;;;;;;;5008277;28;20223;-63
2021/12/30 07:55:54;;;;;;;11.40;8.07;;;;;;;;;;5009436;28;20208;-63
2021/12/30 07:58:21;;;;;;;13.15;8.90;;;;;;;;;;5008203;28;20322;-63
2021/12/30 08:00:46;;;;;;;13.90;8.98;;;;;;;;;;5007982;28;20295;-63
2021/12/30 08:03:11;;;;;;;14.35;9.73;;;;;;;;;;5012659;28;20220;-63
2021/12/30 08:05:37;;;;;;;16.38;10.80;;;;;;;;;;5013620;28;20250;-63
2021/12/30 08:08:02;;;;;;;16.75;11.68;;;;;;;;;;5012866;28;20213;-63
2021/12/30 08:10:29;;;;;;;15.88;11.95;;;;;;;;;;5012416;28;20212;-64
2021/12/30 08:12:54;;;;;;;20.35;13.13;;;;;;;;;;5013184;28;20726;-63
2021/12/30 08:15:20;;;;;;;19.13;13.35;;;;;;;;;;5012334;28;20303;-64
2021/12/30 08:17:45;;;;;;;21.85;13.60;;;;;;;;;;5012623;28;20262;-64
2021/12/30 08:20:11;;;;;;;19.55;12.68;;;;;;;;;;5013181;28;20205;-63
2021/12/30 08:22:36;;;;;;;20.63;13.55;;;;;;;;;;5012893;28;20221;-64
2021/12/30 08:25:01;;;;;;;21.55;14.13;;;;;;;;;;5013231;28;20333;-63
2021/12/30 08:27:27;;;;;;;18.45;12.52;;;;;;;;;;5013516;28;20216;-62
2021/12/30 08:29:52;;;;;;;18.27;12.23;;;;;;;;;;5011241;28;20217;-63
2021/12/30 08:32:18;;;;;;;17.98;12.43;;;;;;;;;;5012944;28;20209;-62
2021/12/30 08:34:43;;;;;;;17.27;11.45;;;;;;;;;;5013474;28;20219;-61
2021/12/30 08:37:09;;;;;;;15.77;11.75;;;;;;;;;;5014994;28;20812;-62
2021/12/30 08:39:36;;;;;;;16.75;11.52;;;;;;;;;;5013320;28;20215;-61
2021/12/30 08:42:01;;;;;;;15.48;10.43;;;;;;;;;;5010081;28;20249;-62
2021/12/30 08:44:26;;;;;;;15.43;10.50;;;;;;;;;;5007294;28;20247;-61
2021/12/30 08:46:52;;;;;;;16.17;9.77;;;;;;;;;;5012868;28;20251;-61
2021/12/30 08:49:17;;;;;;;14.20;8.75;;;;;;;;;;5012416;28;20217;-61
2021/12/30 08:51:42;;;;;;;13.00;9.32;;;;;;;;;;5029422;28;20258;-61
2021/12/30 08:54:08;;;;;;;12.77;8.57;;;;;;;;;;5031994;28;20324;-61
2021/12/30 08:56:33;;;;;;;11.40;8.38;;;;;;;;;;4999821;28;20209;-61
2021/12/30 08:58:58;;;;;;;11.40;7.63;;;;;;;;;;4992183;28;20304;-61
2021/12/30 09:01:23;;;;;;;10.05;7.65;;;;;;;;;;5000588;28;20212;-62
2021/12/30 09:03:49;;;;;;;11.85;7.80;;;;;;;;;;5012207;28;20737;-61
2021/12/30 09:06:14;;;;;;;10.32;7.68;;;;;;;;;;5015069;28;20212;-61
2021/12/30 09:08:39;;;;;;;12.38;7.20;;;;;;;;;;5007612;28;20649;-61
2021/12/30 09:11:05;;;;;;;10.65;7.90;;;;;;;;;;5011560;28;20223;-61
2021/12/30 09:13:30;;;;;;;10.18;7.28;;;;;;;;;;5010126;28;20266;-61
2021/12/30 09:15:55;;;;;;;11.48;8.13;;;;;;;;;;5006517;28;20207;-62
2021/12/30 09:18:21;;;;;;;10.98;6.82;;;;;;;;;;4991936;28;20356;-61
2021/12/30 09:20:46;;;;;;;9.98;6.85;;;;;;;;;;4993031;28;20228;-61
2021/12/30 09:23:12;;;;;;;11.02;6.97;;;;;;;;;;5007478;28;20221;-62
2021/12/30 09:25:37;;;;;;;12.60;7.57;;;;;;;;;;5011208;28;20425;-62
2021/12/30 09:28:03;;;;;;;12.57;6.70;;;;;;;;;;5011984;28;20288;-62
2021/12/30 09:30:28;;;;;;;13.73;6.45;;;;;;;;;;5012081;28;20231;-61
2021/12/30 09:32:54;;;;;;;13.80;6.05;;;;;;;;;;5011686;28;20205;-61
2021/12/30 09:35:19;;;;;;;13.68;6.22;;;;;;;;;;5011651;28;20204;-61
2021/12/30 09:37:45;;;;;;;11.15;5.85;;;;;;;;;;5011456;28;20212;-61
2021/12/30 09:40:13;;;;;;;11.32;5.60;;;;;;;;;;5009325;28;20193;-61
2021/12/30 09:42:39;;;;;;;10.93;5.57;;;;;;;;;;5010365;28;20220;-61
2021/12/30 09:45:05;;;;;;;10.80;5.65;;;;;;;;;;5011011;28;20232;-61
2021/12/30 09:47:31;;;;;;;13.13;5.80;;;;;;;;;;5008594;28;20779;-62
2021/12/30 09:49:56;;;;;;;13.52;4.82;;;;;;;;;;5012079;28;20213;-62
2021/12/30 09:52:22;;;;;;;11.13;4.60;;;;;;;;;;5009700;28;20331;-61
2021/12/30 09:54:47;;;;;;;9.23;4.68;;;;;;;;;;5011155;28;20212;-60
2021/12/30 09:57:12;;;;;;;8.95;3.72;;;;;;;;;;5011419;28;20279;-60
2021/12/30 09:59:38;;;;;;;11.88;3.92;;;;;;;;;;5011597;28;20664;-60
2021/12/30 10:02:03;;;;;;;8.15;3.85;;;;;;;;;;5010769;28;20227;-61
2021/12/30 10:04:29;;;;;;;11.90;4.43;;;;;;;;;;5007936;28;20209;-61
2021/12/30 10:06:55;;;;;;;10.10;4.07;;;;;;;;;;4988604;28;20217;-61
2021/12/30 10:09:25;;;;;;;11.55;3.95;;;;;;;;;;5001209;28;20220;-60
2021/12/30 10:11:52;;;;;;;8.90;3.92;;;;;;;;;;5019351;28;20207;-59
2021/12/30 10:14:25;;;;;;;13.15;3.83;;;;;;;;;;5005921;28;20554;-60
2021/12/30 10:16:51;;;;;;;11.13;3.60;;;;;;;;;;5023066;28;20242;-60
2021/12/30 10:19:16;;;;;;;9.88;3.38;;;;;;;;;;5030676;28;20219;-59
2021/12/30 10:21:41;;;;;;;11.68;3.70;;;;;;;;;;5008683;28;20235;-59
2021/12/30 10:24:07;;;;;;;8.95;3.20;;;;;;;;;;5010486;28;20248;-59
2021/12/30 10:26:48;;;;;;;8.98;2.97;;;;;;;;;;5011156;28;20215;-59
2021/12/30 10:29:14;;;;;;;10.60;3.20;;;;;;;;;;5018562;28;20503;-59
2021/12/30 10:31:39;;;;;;;8.88;3.00;;;;;;;;;;5011295;28;20236;-59
2021/12/30 10:34:06;;;;;;;11.75;3.30;;;;;;;;;;5009388;28;20657;-59
2021/12/30 10:36:31;;;;;;;11.82;3.30;;;;;;;;;;5005978;28;20212;-59
2021/12/30 10:39:14;;;;;;;11.65;3.13;;;;;;;;;;5027410;28;20222;-59
2021/12/30 10:41:39;;;;;;;13.48;3.40;;;;;;;;;;5030584;28;20210;-59
2021/12/30 10:44:05;;;;;;;9.43;3.30;;;;;;;;;;5029521;28;20315;-58
2021/12/30 10:46:30;;;;;;;14.00;3.42;;;;;;;;;;5022788;28;20584;-59
2021/12/30 10:48:58;;;;;;;12.25;3.10;;;;;;;;;;5010208;28;20212;-58
2021/12/30 10:51:31;;;;;;;12.18;3.25;;;;;;;;;;5009969;28;20212;-59
2021/12/30 10:53:57;;;;;;;8.10;3.08;;;;;;;;;;5010626;28;20224;-58
2021/12/30 10:56:23;;;;;;;13.10;3.60;;;;;;;;;;5009628;28;20208;-58
2021/12/30 10:58:50;;;;;;;12.05;4.00;;;;;;;;;;5010807;28;20242;-59
2021/12/30 11:01:18;;;;;;;12.25;3.72;;;;;;;;;;5010289;28;20699;-59
2021/12/30 11:03:53;;;;;;;14.18;4.20;;;;;;;;;;5009677;28;20311;-58
2021/12/30 11:06:19;;;;;;;13.70;3.95;;;;;;;;;;5009876;28;20613;-59
2021/12/30 11:08:46;;;;;;;13.95;4.25;;;;;;;;;;5010385;28;20251;-58
2021/12/30 11:11:24;;;;;;;13.50;4.50;;;;;;;;;;5008252;28;20224;-59
2021/12/30 11:13:56;;;;;;;10.80;4.35;;;;;;;;;;5009103;28;20220;-58
2021/12/30 11:16:21;;;;;;;11.82;3.80;;;;;;;;;;5010085;28;20656;-58
2021/12/30 11:18:47;;;;;;;12.32;4.28;;;;;;;;;;5002163;28;20221;-61
2021/12/30 11:21:12;;;;;;;13.50;4.45;;;;;;;;;;5021742;28;20216;-61
2021/12/30 11:23:38;;;;;;;17.83;5.65;;;;;;;;;;5008938;28;20213;-61
2021/12/30 11:26:03;;;;;;;14.52;4.28;;;;;;;;;;5009269;28;20235;-61
2021/12/30 11:28:28;;;;;;;11.70;3.88;;;;;;;;;;5009165;28;20278;-61
2021/12/30 11:30:53;;;;;;;14.02;4.45;;;;;;;;;;5009009;28;20248;-60
2021/12/30 11:33:19;;;;;;;13.68;4.10;;;;;;;;;;5008489;28;20291;-61
2021/12/30 11:35:44;;;;;;;12.63;4.13;;;;;;;;;;5007234;28;20290;-61
2021/12/30 11:38:09;;;;;;;14.57;4.22;;;;;;;;;;4997887;28;20240;-61
2021/12/30 11:40:37;;;;;;;11.50;3.45;;;;;;;;;;4999171;28;20224;-60
2021/12/30 11:43:09;;;;;;;8.32;3.30;;;;;;;;;;4998498;28;20262;-61
2021/12/30 11:45:36;;;;;;;12.32;3.58;;;;;;;;;;5001318;28;20499;-60
2021/12/30 11:48:02;;;;;;;14.18;3.83;;;;;;;;;;5007175;28;20695;-61
2021/12/30 11:50:28;;;;;;;14.55;3.83;;;;;;;;;;5006486;28;20221;-60
2021/12/30 11:52:56;;;;;;;11.50;3.78;;;;;;;;;;5006118;28;20208;-60
2021/12/30 11:55:40;;;;;;;13.63;3.58;;;;;;;;;;5007994;28;20628;-61
2021/12/30 11:58:24;;;;;;;10.63;3.50;;;;;;;;;;5006980;28;20212;-61
2021/12/30 12:00:50;;;;;;;15.95;3.60;;;;;;;;;;5006837;28;20625;-60
2021/12/30 12:03:29;;;;;;;11.88;3.28;;;;;;;;;;5007484;28;20768;-62
2021/12/30 12:05:54;;;;;;;15.68;3.70;;;;;;;;;;5006427;28;20216;-61
2021/12/30 12:08:20;;;;;;;15.48;3.47;;;;;;;;;;5007164;28;20213;-61
2021/12/30 12:10:51;;;;;;;13.53;3.83;;;;;;;;;;5006893;28;20443;-60
2021/12/30 12:13:40;;;;;;;12.65;3.30;;;;;;;;;;5005754;28;20220;-60
2021/12/30 12:16:05;;;;;;;13.25;3.30;;;;;;;;;;5006580;28;20212;-61
2021/12/30 12:18:30;;;;;;;10.85;3.40;;;;;;;;;;5006080;28;20223;-59
2021/12/30 12:20:57;;;;;;;12.75;3.60;;;;;;;;;;5006124;28;20644;-62
2021/12/30 12:23:31;;;;;;;15.57;3.75;;;;;;;;;;5007421;28;20310;-61
2021/12/30 12:26:06;;;;;;;10.85;3.50;;;;;;;;;;5008116;28;20208;-60
2021/12/30 12:28:31;;;;;;;14.20;3.50;;;;;;;;;;5005890;28;20219;-60
2021/12/30 12:30:57;;;;;;;13.50;3.38;;;;;;;;;;5004740;28;20570;-61
2021/12/30 12:33:24;;;;;;;13.90;5.55;;;;;;;;;;5006114;28;20306;-60
2021/12/30 12:35:49;;;;;;;11.43;4.20;;;;;;;;;;5006756;28;20242;-61
2021/12/30 12:38:16;;;;;;;15.82;3.80;;;;;;;;;;5005774;28;20281;-61
2021/12/30 12:40:43;;;;;;;14.57;4.18;;;;;;;;;;5005375;28;20243;-61
2021/12/30 12:43:10;;;;;;;13.52;3.47;;;;;;;;;;5006322;28;20294;-61
2021/12/30 12:45:41;;;;;;;12.68;3.50;;;;;;;;;;5007159;28;20320;-61
2021/12/30 12:48:16;;;;;;;11.73;3.75;;;;;;;;;;4993274;28;20236;-59
2021/12/30 12:50:42;;;;;;;11.07;3.67;;;;;;;;;;5005261;28;20239;-59
2021/12/30 12:53:20;;;;;;;10.35;3.30;;;;;;;;;;5007088;28;20767;-60
2021/12/30 12:55:46;;;;;;;11.35;3.28;;;;;;;;;;5006395;28;20302;-59
2021/12/30 12:58:11;;;;;;;12.02;3.47;;;;;;;;;;5006938;28;20684;-59
2021/12/30 13:00:36;;;;;;;11.85;3.75;;;;;;;;;;5003255;28;20228;-59
2021/12/30 13:03:01;;;;;;;8.90;3.03;;;;;;;;;;5005307;28;20570;-59
2021/12/30 13:05:27;;;;;;;10.57;3.50;;;;;;;;;;5006490;28;20625;-59
2021/12/30 13:07:54;;;;;;;9.07;3.20;;;;;;;;;;5006658;28;20260;-59
2021/12/30 13:10:20;;;;;;;11.60;3.60;;;;;;;;;;5004830;28;20212;-59
2021/12/30 13:12:47;;;;;;;10.57;3.60;;;;;;;;;;5006315;28;20239;-59
2021/12/30 13:15:13;;;;;;;10.02;3.13;;;;;;;;;;5002643;28;20212;-59
2021/12/30 13:17:41;;;;;;;12.85;3.72;;;;;;;;;;5003966;28;20246;-59
2021/12/30 13:20:06;;;;;;;13.52;3.80;;;;;;;;;;5006077;28;20220;-59
2021/12/30 13:22:31;;;;;;;10.23;3.50;;;;;;;;;;5006217;28;20298;-59
2021/12/30 13:24:58;;;;;;;9.85;3.53;;;;;;;;;;5006001;28;20224;-62
2021/12/30 13:27:27;;;;;;;10.82;3.75;;;;;;;;;;5006081;28;20296;-60
2021/12/30 13:29:54;;;;;;;12.68;3.60;;;;;;;;;;5006369;28;20212;-59
2021/12/30 13:32:24;;;;;;;11.02;3.15;;;;;;;;;;4999648;28;20755;-60
2021/12/30 13:35:05;;;;;;;12.65;3.22;;;;;;;;;;5005535;28;20228;-60
2021/12/30 13:37:31;;;;;;;15.30;3.60;;;;;;;;;;5006442;28;20999;-58
2021/12/30 13:39:56;;;;;;;10.07;3.55;;;;;;;;;;5005989;28;20684;-59
2021/12/30 13:42:24;;;;;;;10.23;3.67;;;;;;;;;;5005754;28;20638;-59
2021/12/30 13:44:51;;;;;;;10.25;3.75;;;;;;;;;;5003868;28;20216;-61
2021/12/30 13:47:17;;;;;;;8.93;3.17;;;;;;;;;;5005273;28;20236;-59
2021/12/30 13:49:44;;;;;;;9.27;3.10;;;;;;;;;;5006054;28;20637;-59
2021/12/30 13:52:09;;;;;;;11.93;3.20;;;;;;;;;;5003933;28;20688;-58
2021/12/30 13:54:35;;;;;;;13.68;3.63;;;;;;;;;;5005414;28;20208;-60
2021/12/30 13:57:00;;;;;;;9.68;2.90;;;;;;;;;;5005603;28;20247;-61
2021/12/30 13:59:29;;;;;;;9.07;2.90;;;;;;;;;;5003909;28;20640;-60
2021/12/30 14:01:54;;;;;;;11.35;3.10;;;;;;;;;;5004810;28;20282;-60
2021/12/30 14:04:24;;;;;;;10.65;2.60;;;;;;;;;;5005846;28;20228;-60
2021/12/30 14:06:49;;;;;;;7.47;2.60;;;;;;;;;;5004664;28;20220;-60
2021/12/30 14:09:15;;;;;;;8.45;2.20;;;;;;;;;;5005499;28;20226;-60
2021/12/30 14:11:42;;;;;;;9.13;3.03;;;;;;;;;;5005728;28;20569;-60
2021/12/30 14:14:08;;;;;;;8.25;2.88;;;;;;;;;;5004769;28;20307;-60
2021/12/30 14:16:36;;;;;;;7.65;2.33;;;;;;;;;;5004201;28;20216;-60
2021/12/30 14:19:01;;;;;;;9.05;2.28;;;;;;;;;;5005188;28;20212;-61
2021/12/30 14:21:27;;;;;;;8.18;2.42;;;;;;;;;;5003275;28;20211;-60